Time;durP1;ratioP1;P1;durP2;ratioP2;P2;SDS_P1;SDS_P2;PMS_P1;PMS_P2;Temp;Humidity;BMP_temperature;BMP_pressure;BME280_temperature;BME280_humidity;BME280_pressure;Samples;Min_cycle;Max_cycle;Signal;HPM_P1;HPM_P2
2022/04/23 00:00:24;;;;;;;4.00;3.80;;;;;;;12.62;97.69;98482.41;5111348;28;20195;-71
2022/04/23 00:02:51;;;;;;;3.67;3.47;;;;;;;12.55;97.93;98481.09;5111230;28;20293;-72
2022/04/23 00:05:17;;;;;;;3.70;3.50;;;;;;;12.51;97.48;98480.41;5111749;28;20201;-72
2022/04/23 00:07:45;;;;;;;3.27;3.13;;;;;;;12.46;97.78;98482.41;5111173;28;20190;-72
2022/04/23 00:10:13;;;;;;;3.23;3.13;;;;;;;12.48;97.91;98469.44;5111444;28;20199;-72
2022/04/23 00:12:42;;;;;;;3.13;2.97;;;;;;;12.48;97.66;98470.28;5111210;28;20704;-71
2022/04/23 00:15:10;;;;;;;3.67;3.37;;;;;;;12.52;97.59;98465.81;5112194;27;20658;-72
2022/04/23 00:17:37;;;;;;;3.30;3.13;;;;;;;12.50;97.53;98462.50;5111026;28;20277;-72
2022/04/23 00:20:06;;;;;;;3.13;3.03;;;;;;;12.48;97.69;98464.31;5111202;28;20666;-72
2022/04/23 00:22:36;;;;;;;4.47;4.17;;;;;;;12.50;97.35;98468.47;5111120;28;20194;-72
2022/04/23 00:25:03;;;;;;;3.00;2.80;;;;;;;12.50;97.14;98460.75;5111902;28;20195;-72
2022/04/23 00:27:31;;;;;;;3.50;3.33;;;;;;;12.45;97.32;98460.16;5111096;28;20209;-72
2022/04/23 00:29:58;;;;;;;3.40;3.20;;;;;;;12.34;97.96;98454.75;5111384;28;20574;-72
2022/04/23 00:32:25;;;;;;;4.07;3.87;;;;;;;12.34;98.35;98467.59;5110994;28;20666;-71
2022/04/23 00:34:52;;;;;;;3.53;3.43;;;;;;;12.25;98.80;98451.81;5112449;28;20191;-71
2022/04/23 00:37:18;;;;;;;4.17;3.83;;;;;;;12.27;99.00;98461.16;5111170;28;20645;-72
2022/04/23 00:39:46;;;;;;;4.93;3.30;;;;;;;12.27;98.77;98460.31;5110060;28;20237;-71
2022/04/23 00:42:13;;;;;;;3.60;3.43;;;;;;;12.27;98.27;98466.28;5109115;28;20202;-72
2022/04/23 00:44:41;;;;;;;4.57;3.70;;;;;;;12.26;98.29;98464.63;5112367;28;20200;-71
2022/04/23 00:47:09;;;;;;;3.77;3.57;;;;;;;12.20;99.03;98466.66;5111368;28;20285;-71
2022/04/23 00:49:36;;;;;;;4.47;4.07;;;;;;;12.12;99.02;98476.53;5110384;28;20604;-71
2022/04/23 00:52:04;;;;;;;4.03;3.83;;;;;;;12.04;98.95;98489.75;5110770;28;20194;-71
2022/04/23 00:54:32;;;;;;;4.37;4.10;;;;;;;11.88;98.78;98465.75;5110332;28;20217;-72
2022/04/23 00:56:59;;;;;;;4.80;4.00;;;;;;;11.97;98.69;98483.25;5110527;28;20214;-72
2022/04/23 00:59:28;;;;;;;4.20;4.00;;;;;;;11.95;98.94;98477.38;5118056;27;20280;-72
2022/04/23 01:01:56;;;;;;;3.93;3.73;;;;;;;11.97;99.26;98478.13;5112477;27;20211;-71
2022/04/23 01:04:23;;;;;;;4.60;4.40;;;;;;;11.97;99.21;98478.13;5115107;28;20598;-72
2022/04/23 01:06:50;;;;;;;5.03;4.00;;;;;;;11.91;99.30;98468.16;5114526;28;20197;-71
2022/04/23 01:09:17;;;;;;;3.93;3.70;;;;;;;11.93;99.49;98484.31;5114493;28;20297;-72
2022/04/23 01:11:44;;;;;;;4.37;4.17;;;;;;;11.92;99.50;98492.94;5113900;28;20191;-72
2022/04/23 01:14:11;;;;;;;3.90;3.70;;;;;;;11.92;99.71;98496.31;5112884;28;20293;-72
2022/04/23 01:16:38;;;;;;;4.33;4.07;;;;;;;11.89;99.49;98500.78;5114904;28;20686;-72
2022/04/23 01:19:06;;;;;;;4.93;4.43;;;;;;;11.87;99.45;98497.44;5113768;28;20206;-72
2022/04/23 01:21:35;;;;;;;4.23;4.03;;;;;;;11.85;99.26;98489.00;5113756;28;20300;-72
2022/04/23 01:24:03;;;;;;;4.53;4.10;;;;;;;11.79;99.88;98489.31;5114727;28;20683;-72
2022/04/23 01:26:31;;;;;;;5.47;4.40;;;;;;;11.72;99.67;98493.91;5114637;28;20190;-72
2022/04/23 01:28:59;;;;;;;3.77;3.57;;;;;;;11.60;100.00;98513.25;5112971;28;20683;-71
2022/04/23 01:31:26;;;;;;;3.90;3.70;;;;;;;11.49;100.00;98507.84;5113689;27;20205;-72
2022/04/23 01:33:54;;;;;;;5.83;4.27;;;;;;;11.37;100.00;98482.75;5112138;28;20207;-71
2022/04/23 01:36:21;;;;;;;4.30;4.00;;;;;;;11.30;100.00;98471.13;5112313;28;20225;-72
2022/04/23 01:38:49;;;;;;;3.80;3.40;;;;;;;11.41;100.00;98504.78;5112031;27;20191;-72
2022/04/23 01:41:16;;;;;;;4.30;4.00;;;;;;;11.31;100.00;98488.16;5112835;27;20230;-72
2022/04/23 01:43:43;;;;;;;6.60;5.27;;;;;;;11.35;100.00;98499.94;5112884;28;20206;-72
2022/04/23 01:46:10;;;;;;;5.07;4.67;;;;;;;11.39;100.00;98505.78;5113673;28;20199;-71
2022/04/23 01:48:37;;;;;;;4.30;3.83;;;;;;;11.38;100.00;98502.38;5114038;28;20209;-72
2022/04/23 01:51:04;;;;;;;4.47;4.17;;;;;;;11.39;100.00;98503.22;5116088;27;20580;-71
2022/04/23 01:53:31;;;;;;;4.10;3.90;;;;;;;11.42;100.00;98503.91;5113976;28;20199;-72
2022/04/23 01:55:59;;;;;;;3.70;3.60;;;;;;;11.47;100.00;98498.56;5113937;28;20215;-72
2022/04/23 01:58:26;;;;;;;4.60;4.00;;;;;;;11.44;100.00;98496.94;5111505;28;20198;-72
2022/04/23 02:00:54;;;;;;;4.37;4.17;;;;;;;11.39;100.00;98493.78;5114949;27;20199;-72
2022/04/23 02:03:21;;;;;;;3.83;3.63;;;;;;;11.37;100.00;98494.75;5114047;28;20252;-72
2022/04/23 02:05:48;;;;;;;3.83;3.63;;;;;;;11.35;100.00;98494.81;5113639;28;20244;-72
2022/04/23 02:08:16;;;;;;;4.47;4.20;;;;;;;11.19;100.00;98469.97;5113533;28;20195;-72
2022/04/23 02:10:43;;;;;;;4.00;3.57;;;;;;;11.22;100.00;98506.56;5113445;28;20198;-72
2022/04/23 02:13:12;;;;;;;3.27;3.17;;;;;;;11.15;100.00;98507.75;5113630;28;20206;-71
2022/04/23 02:15:40;;;;;;;3.83;3.63;;;;;;;11.03;100.00;98523.72;5114540;27;20202;-72
2022/04/23 02:18:08;;;;;;;3.53;3.43;;;;;;;10.98;100.00;98517.97;5113634;28;20191;-72
2022/04/23 02:20:35;;;;;;;3.83;3.63;;;;;;;10.98;99.78;98520.53;5113539;28;20198;-72
2022/04/23 02:23:02;;;;;;;4.47;3.50;;;;;;;10.99;99.93;98532.44;5113339;28;21151;-71
2022/04/23 02:25:28;;;;;;;3.97;3.63;;;;;;;10.97;99.44;98534.25;5113072;28;20199;-72
2022/04/23 02:27:55;;;;;;;3.70;3.50;;;;;;;10.87;99.73;98525.31;5113411;28;20681;-72
2022/04/23 02:30:24;;;;;;;3.77;3.57;;;;;;;10.79;100.00;98524.84;5114295;27;20194;-71
2022/04/23 02:32:51;;;;;;;3.90;3.70;;;;;;;10.73;100.00;98530.22;5113392;28;20282;-72
2022/04/23 02:35:19;;;;;;;4.30;4.10;;;;;;;10.54;100.00;98531.03;5112029;27;20213;-71
2022/04/23 02:37:47;;;;;;;4.77;4.47;;;;;;;10.49;100.00;98538.09;5111356;27;20215;-71
2022/04/23 02:40:15;;;;;;;5.40;3.70;;;;;;;10.26;100.00;98525.44;5112462;28;20237;-72
2022/04/23 02:42:42;;;;;;;3.50;3.30;;;;;;;10.27;100.00;98547.63;5112550;27;20194;-72
2022/04/23 02:45:11;;;;;;;8.40;3.67;;;;;;;10.26;100.00;98540.81;5113119;27;20198;-72
2022/04/23 02:47:46;;;;;;;3.67;3.53;;;;;;;10.28;100.00;98539.00;5111563;28;20652;-71
2022/04/23 02:50:14;;;;;;;4.20;3.77;;;;;;;10.22;100.00;98533.31;5112930;28;20569;-72
2022/04/23 02:52:43;;;;;;;3.40;3.30;;;;;;;10.23;100.00;98540.13;5112691;28;20674;-71
2022/04/23 02:55:11;;;;;;;3.30;3.00;;;;;;;10.15;100.00;98548.09;5112830;28;20198;-72
2022/04/23 02:57:38;;;;;;;3.17;3.07;;;;;;;10.14;100.00;98550.75;5111469;28;20217;-72
2022/04/23 03:00:08;;;;;;;3.93;3.63;;;;;;;10.17;100.00;98556.56;5114515;27;20198;-72
2022/04/23 03:02:36;;;;;;;4.20;3.90;;;;;;;10.14;100.00;98561.84;5112309;28;20702;-71
2022/04/23 03:05:06;;;;;;;3.90;3.27;;;;;;;10.13;100.00;98564.41;5112731;28;20226;-72
2022/04/23 03:07:34;;;;;;;3.37;3.17;;;;;;;10.16;100.00;98565.16;5112444;28;20723;-71
2022/04/23 03:10:02;;;;;;;3.47;3.27;;;;;;;10.17;100.00;98571.09;5112545;27;20203;-72
2022/04/23 03:12:29;;;;;;;4.80;3.50;;;;;;;10.17;100.00;98584.75;5112023;28;20287;-72
2022/04/23 03:14:56;;;;;;;3.13;3.00;;;;;;;10.19;100.00;98584.66;5112844;27;20597;-72
2022/04/23 03:17:23;;;;;;;4.27;3.97;;;;;;;10.11;100.00;98579.84;5112230;28;20207;-72
2022/04/23 03:19:50;;;;;;;3.43;3.23;;;;;;;10.05;100.00;98577.53;5111849;28;20245;-71
2022/04/23 03:22:20;;;;;;;2.50;2.40;;;;;;;10.01;100.00;98579.41;5110608;28;20209;-72
2022/04/23 03:24:47;;;;;;;3.20;3.00;;;;;;;9.95;100.00;98583.94;5109799;28;20204;-72
2022/04/23 03:27:14;;;;;;;2.90;2.80;;;;;;;9.83;100.00;98576.72;5111041;28;20195;-71
2022/04/23 03:29:41;;;;;;;3.37;2.80;;;;;;;9.73;100.00;98562.63;5112095;28;20197;-72
2022/04/23 03:32:10;;;;;;;3.40;3.00;;;;;;;9.65;100.00;98582.59;5109913;27;20195;-71
2022/04/23 03:34:37;;;;;;;3.57;3.20;;;;;;;9.61;100.00;98581.03;5111864;28;20201;-71
2022/04/23 03:37:05;;;;;;;4.23;3.90;;;;;;;9.35;100.00;98576.94;5110194;27;20314;-71
2022/04/23 03:39:33;;;;;;;4.13;3.93;;;;;;;9.19;100.00;98581.81;5111275;28;20711;-72
2022/04/23 03:42:01;;;;;;;4.83;4.53;;;;;;;9.04;100.00;98586.66;5109713;27;20202;-71
2022/04/23 03:44:29;;;;;;;6.00;5.40;;;;;;;8.96;100.00;98571.59;5109818;28;20198;-72
2022/04/23 03:46:57;;;;;;;7.20;6.60;;;;;;;8.93;100.00;98572.53;5109690;28;20681;-70
2022/04/23 03:49:24;;;;;;;8.23;7.43;;;;;;;8.91;100.00;98560.72;5109526;28;20213;-72
2022/04/23 03:51:52;;;;;;;8.00;7.23;;;;;;;8.96;100.00;98556.25;5110661;28;20567;-72
2022/04/23 03:54:18;;;;;;;8.27;7.57;;;;;;;9.04;100.00;98555.97;5109443;28;20290;-72
2022/04/23 03:56:47;;;;;;;7.57;6.73;;;;;;;9.11;100.00;98549.75;5111755;28;20226;-72
2022/04/23 03:59:15;;;;;;;7.13;6.63;;;;;;;9.12;100.00;98541.16;5112441;27;20286;-72
2022/04/23 04:01:42;;;;;;;7.07;6.57;;;;;;;9.30;100.00;98555.81;5111322;28;20190;-72
2022/04/23 04:04:09;;;;;;;7.03;6.53;;;;;;;9.38;100.00;98554.63;5111372;28;20641;-72
2022/04/23 04:06:36;;;;;;;7.47;6.73;;;;;;;9.44;100.00;98554.38;5111729;28;20715;-72
2022/04/23 04:09:03;;;;;;;7.43;6.80;;;;;;;9.54;100.00;98569.38;5111415;28;20285;-71
2022/04/23 04:12:01;;;;;;;6.87;6.27;;;;;;;9.67;100.00;98565.44;5111352;28;20552;-72
2022/04/23 04:14:19;;;;;;;11.87;6.03;;;;;;;9.82;100.00;98559.72;5109544;28;20216;-72
2022/04/23 04:16:47;;;;;;;7.47;6.80;;;;;;;9.95;100.00;98555.78;5111558;28;20777;-72
2022/04/23 04:19:14;;;;;;;6.37;5.87;;;;;;;10.09;100.00;98557.75;5111171;28;20205;-72
2022/04/23 04:21:43;;;;;;;6.23;5.73;;;;;;;10.16;100.00;98549.78;5114187;27;20202;-72
2022/04/23 04:24:12;;;;;;;6.10;5.80;;;;;;;10.29;100.00;98556.06;5111051;28;20276;-71
2022/04/23 04:26:40;;;;;;;6.97;6.47;;;;;;;10.51;100.00;98555.97;5110724;28;20198;-72
2022/04/23 04:29:07;;;;;;;6.70;6.30;;;;;;;10.65;100.00;98557.94;5112056;27;20198;-72
2022/04/23 04:31:51;;;;;;;7.03;6.13;;;;;;;10.77;100.00;98547.13;5110124;28;20202;-72
2022/04/23 04:34:21;;;;;;;9.33;7.80;;;;;;;11.02;100.00;98571.59;5108916;27;20585;-71
2022/04/23 04:36:49;;;;;;;8.97;8.17;;;;;;;11.22;100.00;98573.25;5110136;28;20219;-72
2022/04/23 04:39:18;;;;;;;7.70;7.13;;;;;;;11.37;100.00;98582.81;5110420;28;20645;-72
2022/04/23 04:41:46;;;;;;;6.97;6.53;;;;;;;11.41;100.00;98586.06;5110370;28;20289;-73
2022/04/23 04:44:13;;;;;;;8.13;7.40;;;;;;;11.43;100.00;98585.13;5108289;28;20241;-73
2022/04/23 04:46:42;;;;;;;7.37;6.87;;;;;;;11.42;100.00;98565.47;5108965;28;20202;-72
2022/04/23 04:49:08;;;;;;;6.97;6.33;;;;;;;11.68;100.00;98574.53;5111867;28;20198;-72
2022/04/23 04:51:36;;;;;;;6.83;6.03;;;;;;;11.83;100.00;98583.25;5112135;28;20734;-72
2022/04/23 04:54:04;;;;;;;6.20;5.90;;;;;;;12.00;100.00;98578.13;5110784;28;20670;-72
2022/04/23 04:56:30;;;;;;;6.37;5.87;;;;;;;12.17;100.00;98592.72;5110890;28;20195;-72
2022/04/23 04:58:57;;;;;;;7.43;6.30;;;;;;;12.32;100.00;98572.22;5110922;28;20752;-72
2022/04/23 05:01:24;;;;;;;6.13;5.73;;;;;;;12.59;100.00;98586.25;5110684;28;20198;-72
2022/04/23 05:03:53;;;;;;;6.60;6.10;;;;;;;12.77;100.00;98592.19;5109633;28;20635;-72
2022/04/23 05:06:21;;;;;;;6.60;6.20;;;;;;;13.07;100.00;98576.88;5110515;28;20203;-72
2022/04/23 05:08:48;;;;;;;5.77;5.30;;;;;;;13.35;100.00;98573.69;5110723;28;20199;-72
2022/04/23 05:11:15;;;;;;;4.97;4.67;;;;;;;13.54;100.00;98577.75;5111000;28;20194;-72
2022/04/23 05:13:41;;;;;;;5.03;4.73;;;;;;;13.56;100.00;98575.94;5110386;28;20285;-72
2022/04/23 05:16:09;;;;;;;4.17;3.87;;;;;;;13.67;100.00;98581.28;5110463;28;20276;-72
2022/04/23 05:18:36;;;;;;;4.63;4.27;;;;;;;13.68;100.00;98569.25;5110438;28;20210;-71
2022/04/23 05:21:05;;;;;;;3.87;3.67;;;;;;;13.76;100.00;98584.28;5111088;28;20230;-72
2022/04/23 05:23:32;;;;;;;3.00;2.80;;;;;;;13.82;100.00;98592.50;5110555;28;20195;-72
2022/04/23 05:25:59;;;;;;;3.40;3.20;;;;;;;13.93;100.00;98599.59;5110481;28;20667;-72
2022/04/23 05:28:26;;;;;;;3.57;3.37;;;;;;;13.93;100.00;98609.91;5109737;27;20698;-72
2022/04/23 05:30:53;;;;;;;3.00;2.90;;;;;;;13.93;99.29;98610.75;5109464;28;20198;-71
2022/04/23 05:33:20;;;;;;;3.93;3.67;;;;;;;13.98;98.04;98615.66;5110866;28;20194;-72
2022/04/23 05:35:47;;;;;;;3.07;2.97;;;;;;;14.03;98.82;98626.53;5110227;28;20195;-72
2022/04/23 05:38:15;;;;;;;6.97;3.40;;;;;;;14.16;100.00;98622.34;5110206;28;20602;-72
2022/04/23 05:40:43;;;;;;;3.40;3.20;;;;;;;14.26;99.45;98633.78;5113273;28;20786;-73
2022/04/23 05:43:09;;;;;;;2.73;2.63;;;;;;;14.48;100.00;98629.09;5110129;28;20198;-72
2022/04/23 05:45:36;;;;;;;2.77;2.57;;;;;;;14.65;99.26;98623.78;5113095;28;20724;-72
2022/04/23 05:48:03;;;;;;;3.00;2.83;;;;;;;14.80;98.29;98624.59;5117752;27;20190;-71
2022/04/23 05:50:30;;;;;;;3.00;2.90;;;;;;;14.96;100.00;98606.47;5112583;28;20273;-71
2022/04/23 05:52:57;;;;;;;3.20;3.00;;;;;;;15.28;100.00;98614.84;5111569;27;20285;-71
2022/04/23 05:55:26;;;;;;;3.60;3.37;;;;;;;15.46;94.92;98621.44;5113143;28;20234;-72
2022/04/23 05:57:53;;;;;;;3.00;2.80;;;;;;;15.66;95.30;98606.38;5113030;28;20589;-72
2022/04/23 06:00:20;;;;;;;2.70;2.60;;;;;;;15.94;93.04;98626.13;5111753;28;20209;-72
2022/04/23 06:02:47;;;;;;;2.90;2.70;;;;;;;16.15;90.25;98634.25;5113153;27;20199;-72
2022/04/23 06:05:14;;;;;;;2.67;2.53;;;;;;;16.32;89.49;98631.38;5113386;27;20688;-72
2022/04/23 06:07:41;;;;;;;2.97;2.80;;;;;;;16.53;90.40;98645.50;5112386;28;20207;-72
2022/04/23 06:10:09;;;;;;;3.37;3.17;;;;;;;16.70;88.17;98644.41;5114273;27;20203;-71
2022/04/23 06:12:37;;;;;;;3.03;2.93;;;;;;;16.77;87.28;98646.47;5112719;28;20265;-73
2022/04/23 06:15:05;;;;;;;3.27;3.07;;;;;;;16.64;86.08;98642.25;5112314;27;20286;-71
2022/04/23 06:17:32;;;;;;;3.17;2.90;;;;;;;16.70;85.81;98647.00;5111886;28;20745;-72
2022/04/23 06:20:01;;;;;;;3.07;2.70;;;;;;;16.71;86.50;98644.31;5110995;27;20199;-72
2022/04/23 06:22:28;;;;;;;2.97;2.87;;;;;;;16.93;85.96;98648.06;5112237;27;20293;-72
2022/04/23 06:24:55;;;;;;;3.60;3.30;;;;;;;16.97;84.68;98655.50;5109426;28;20296;-72
2022/04/23 06:27:22;;;;;;;3.10;2.80;;;;;;;17.13;83.68;98650.91;5111489;27;20202;-72
2022/04/23 06:29:50;;;;;;;3.20;3.00;;;;;;;17.26;81.82;98646.56;5107593;27;20203;-72
2022/04/23 06:32:17;;;;;;;2.97;2.77;;;;;;;17.43;80.59;98653.16;5109648;28;20322;-70
2022/04/23 06:34:44;;;;;;;3.67;3.47;;;;;;;17.60;79.99;98645.06;5110007;27;20220;-72
2022/04/23 06:37:11;;;;;;;3.43;3.23;;;;;;;17.78;79.95;98654.13;5111092;28;20206;-71
2022/04/23 06:39:38;;;;;;;3.30;3.10;;;;;;;17.95;79.74;98654.69;5109651;28;20230;-71
2022/04/23 06:42:06;;;;;;;3.50;3.20;;;;;;;18.18;76.44;98661.63;5110878;28;20301;-72
2022/04/23 06:44:33;;;;;;;3.50;3.30;;;;;;;18.41;76.95;98668.56;5111646;28;20210;-71
2022/04/23 06:47:01;;;;;;;3.20;2.93;;;;;;;18.59;76.52;98674.19;5110540;27;20206;-72
2022/04/23 06:49:28;;;;;;;4.47;4.17;;;;;;;18.76;73.30;98674.59;5111439;28;20281;-71
2022/04/23 06:51:56;;;;;;;3.90;3.70;;;;;;;18.87;71.01;98674.59;5111891;28;20285;-72
2022/04/23 06:54:23;;;;;;;3.30;3.10;;;;;;;19.00;70.23;98676.28;5111528;28;20207;-72
2022/04/23 06:56:50;;;;;;;3.87;3.67;;;;;;;19.10;72.57;98677.22;5111743;28;20199;-72
2022/04/23 06:59:17;;;;;;;3.67;3.47;;;;;;;19.23;70.75;98677.94;5111813;28;20218;-72
2022/04/23 07:01:43;;;;;;;3.27;3.07;;;;;;;19.48;70.56;98677.75;5111434;28;20206;-71
2022/04/23 07:04:12;;;;;;;4.13;3.93;;;;;;;19.64;73.12;98667.81;5111339;28;20198;-71
2022/04/23 07:06:39;;;;;;;3.37;3.17;;;;;;;19.80;76.46;98673.44;5111886;28;20742;-71
2022/04/23 07:09:06;;;;;;;4.13;3.80;;;;;;;19.83;70.77;98678.41;5112311;27;20198;-71
2022/04/23 07:11:33;;;;;;;3.77;3.40;;;;;;;20.07;69.58;98669.56;5108772;28;20199;-72
2022/04/23 07:14:00;;;;;;;4.47;3.00;;;;;;;20.12;67.39;98688.25;5110702;28;20280;-72
2022/04/23 07:16:27;;;;;;;4.43;3.57;;;;;;;20.17;70.88;98686.09;5110620;28;20207;-71
2022/04/23 07:18:54;;;;;;;4.83;3.00;;;;;;;20.33;69.84;98676.13;5111691;28;20306;-71
2022/04/23 07:21:23;;;;;;;5.83;3.33;;;;;;;20.47;71.41;98688.03;5111074;28;20233;-71
2022/04/23 07:24:05;;;;;;;3.03;2.93;;;;;;;20.39;71.69;98675.63;5109442;28;20218;-71
2022/04/23 07:26:34;;;;;;;2.80;2.70;;;;;;;20.48;71.14;98664.47;5109324;28;20259;-71
2022/04/23 07:29:03;;;;;;;3.00;2.90;;;;;;;20.73;69.25;98686.72;5111179;28;20740;-71
2022/04/23 07:31:30;;;;;;;4.27;3.80;;;;;;;20.85;68.02;98683.91;5110565;28;20210;-71
2022/04/23 07:39:28;;;;;;;3.90;3.70;;;;;;;21.18;70.68;98692.47;5110439;27;20235;-71
2022/04/23 07:41:55;;;;;;;3.63;3.43;;;;;;;21.01;71.65;98688.66;5110786;28;20295;-73
2022/04/23 07:44:22;;;;;;;3.33;3.17;;;;;;;21.07;75.65;98677.72;5109024;28;20628;-72
2022/04/23 07:46:49;;;;;;;3.77;3.13;;;;;;;20.84;68.95;98697.88;5107735;28;20196;-73
2022/04/23 07:49:16;;;;;;;3.90;3.60;;;;;;;20.98;73.36;98693.31;5110229;28;20286;-73
2022/04/23 07:51:47;;;;;;;3.73;3.53;;;;;;;20.99;73.86;98690.56;5110807;28;20217;-72
2022/04/23 07:54:15;;;;;;;3.97;3.57;;;;;;;20.87;71.69;98695.00;5110593;28;20248;-72
2022/04/23 07:56:42;;;;;;;3.77;3.40;;;;;;;21.06;77.47;98690.88;5110802;28;20280;-69
2022/04/23 07:59:10;;;;;;;3.50;3.30;;;;;;;21.24;70.41;98695.41;5110380;28;20221;-73
2022/04/23 08:01:37;;;;;;;4.63;4.23;;;;;;;21.22;69.15;98691.28;5110204;28;20208;-73
2022/04/23 08:04:04;;;;;;;3.33;3.13;;;;;;;21.57;69.43;98693.47;5110215;28;20290;-73
2022/04/23 08:06:32;;;;;;;3.23;3.07;;;;;;;21.60;70.67;98685.38;5109165;28;20231;-73
2022/04/23 08:09:00;;;;;;;6.03;3.17;;;;;;;21.48;67.72;98695.09;5111217;28;20200;-73
2022/04/23 08:11:27;;;;;;;2.90;2.80;;;;;;;21.52;67.14;98693.06;5110467;28;20668;-73
2022/04/23 08:13:54;;;;;;;5.00;4.60;;;;;;;21.44;70.02;98691.09;5110669;28;20604;-74
2022/04/23 08:16:21;;;;;;;7.53;6.87;;;;;;;21.21;68.12;98695.66;5110168;28;20205;-72
2022/04/23 08:18:48;;;;;;;3.97;3.77;;;;;;;21.10;72.75;98692.31;5110458;28;20691;-73
2022/04/23 08:21:15;;;;;;;4.30;4.10;;;;;;;21.10;69.73;98692.31;5110015;28;20290;-73
2022/04/23 08:23:42;;;;;;;3.63;3.47;;;;;;;21.11;70.48;98689.56;5108624;27;20195;-72
2022/04/23 08:26:10;;;;;;;3.87;3.67;;;;;;;20.97;72.35;98686.47;5109086;28;20211;-73
2022/04/23 08:31:22;;;;;;;3.93;3.53;;;;;;;21.03;72.60;98684.16;5109071;28;20201;-73
2022/04/23 08:36:35;;;;;;;3.07;2.97;;;;;;;20.93;68.97;98691.94;5112567;27;20616;-72
2022/04/23 08:39:04;;;;;;;3.03;2.73;;;;;;;21.09;70.65;98680.19;5111354;28;20230;-72
2022/04/23 08:41:34;;;;;;;4.00;3.80;;;;;;;21.21;72.49;98681.78;5110296;28;20233;-72
2022/04/23 08:44:06;;;;;;;4.70;4.40;;;;;;;21.34;69.27;98687.63;5110639;28;20690;-74
2022/04/23 08:46:35;;;;;;;4.37;3.93;;;;;;;21.36;71.81;98677.88;5110232;28;20249;-73
2022/04/23 08:49:11;;;;;;;4.07;3.63;;;;;;;21.42;69.80;98670.34;5110951;28;20194;-73
2022/04/23 08:51:39;;;;;;;3.80;3.50;;;;;;;21.45;70.23;98675.28;5111576;28;20206;-64
2022/04/23 08:54:08;;;;;;;5.17;4.87;;;;;;;21.53;69.81;98664.22;5111826;28;20228;-64
2022/04/23 08:56:38;;;;;;;4.73;4.27;;;;;;;21.48;70.00;98666.41;5111695;28;20191;-64
2022/04/23 08:59:07;;;;;;;4.40;4.10;;;;;;;21.43;71.38;98668.56;5110260;28;20215;-64
2022/04/23 09:01:35;;;;;;;6.17;3.60;;;;;;;21.34;68.47;98669.38;5111732;28;20454;-64
2022/04/23 09:04:02;;;;;;;2.93;2.83;;;;;;;21.48;70.15;98661.19;5111382;28;20668;-64
2022/04/23 09:06:37;;;;;;;2.70;2.60;;;;;;;21.33;71.00;98654.66;5111342;28;20287;-64
2022/04/23 09:09:10;;;;;;;2.90;2.67;;;;;;;21.32;68.61;98664.31;5112634;28;20282;-64
2022/04/23 09:11:40;;;;;;;3.93;2.50;;;;;;;21.23;68.18;98656.41;5109993;28;20259;-64
2022/04/23 09:14:09;;;;;;;3.00;2.73;;;;;;;21.36;71.44;98663.06;5110206;28;20587;-64
2022/04/23 09:25:06;;;;;;;2.83;2.73;;;;;;;21.92;70.28;98639.91;5114959;28;20221;-63
2022/04/23 09:27:35;;;;;;;2.70;2.50;;;;;;;21.95;61.58;98650.06;5115486;28;20226;-63
2022/04/23 09:30:03;;;;;;;3.23;2.87;;;;;;;22.12;64.40;98647.75;5115189;28;20206;-64
2022/04/23 09:32:30;;;;;;;2.60;2.50;;;;;;;22.21;67.58;98642.53;5112575;28;20616;-65
2022/04/23 09:35:11;;;;;;;3.43;3.17;;;;;;;22.39;65.04;98642.66;5115306;28;20230;-64
2022/04/23 09:40:26;;;;;;;2.13;2.03;;;;;;;22.40;64.08;98623.41;5102762;28;20276;-63
2022/04/23 09:42:59;;;;;;;3.03;2.83;;;;;;;22.65;68.05;98637.69;5115165;27;20226;-64
2022/04/23 09:45:29;;;;;;;3.33;2.83;;;;;;;22.63;68.40;98618.69;5115047;28;20202;-64
2022/04/23 09:47:56;;;;;;;4.40;3.10;;;;;;;22.83;65.22;98625.56;5114841;28;20197;-65
2022/04/23 09:50:24;;;;;;;3.13;2.80;;;;;;;23.04;70.59;98628.75;5114004;28;20204;-69
2022/04/23 09:52:51;;;;;;;6.37;2.87;;;;;;;23.10;61.35;98627.41;5110922;28;20208;-69
2022/04/23 09:55:22;;;;;;;2.43;2.33;;;;;;;23.04;61.83;98623.53;5110495;28;20670;-68
2022/04/23 09:57:49;;;;;;;2.00;1.90;;;;;;;22.99;58.52;98626.59;5114520;27;20201;-70
2022/04/23 10:00:19;;;;;;;3.17;2.80;;;;;;;23.04;60.94;98620.94;5115052;27;20223;-70
2022/04/23 10:02:47;;;;;;;3.37;2.67;;;;;;;23.21;64.36;98614.13;5114331;27;20283;-70
2022/04/23 10:05:20;;;;;;;4.63;2.30;;;;;;;23.36;61.30;98612.69;5116445;27;20666;-70
2022/04/23 10:07:50;;;;;;;3.40;3.10;;;;;;;23.40;58.91;98608.81;5114891;27;20228;-71
2022/04/23 10:10:18;;;;;;;2.60;2.50;;;;;;;23.58;59.32;98611.50;5110697;28;20285;-70
2022/04/23 10:12:46;;;;;;;4.87;2.83;;;;;;;23.63;60.03;98612.69;5110192;28;20226;-70
2022/04/23 10:15:14;;;;;;;5.03;2.57;;;;;;;23.63;59.38;98604.84;5114182;27;20685;-70
2022/04/23 10:17:43;;;;;;;2.40;2.23;;;;;;;23.82;60.36;98596.03;5111262;27;20766;-71
2022/04/23 10:20:13;;;;;;;2.30;2.20;;;;;;;24.19;56.18;98614.22;5112571;27;20249;-71
2022/04/23 10:22:54;;;;;;;4.67;3.70;;;;;;;24.34;59.45;98604.84;5115215;27;20218;-71
2022/04/23 10:25:34;;;;;;;2.53;2.33;;;;;;;24.46;58.31;98603.63;5113553;27;20674;-70
2022/04/23 10:28:02;;;;;;;4.77;2.30;;;;;;;24.46;60.07;98595.75;5112978;27;20195;-70
2022/04/23 10:30:31;;;;;;;2.23;2.13;;;;;;;24.52;58.26;98608.28;5111640;28;20201;-70
2022/04/23 10:33:23;;;;;;;2.00;1.90;;;;;;;24.45;58.08;98602.00;5112374;28;20199;-70
2022/04/23 10:36:06;;;;;;;4.63;2.83;;;;;;;24.62;55.68;98595.88;5111954;28;20281;-70
2022/04/23 10:38:33;;;;;;;2.80;2.60;;;;;;;24.81;54.49;98597.50;5112510;27;20222;-70
2022/04/23 10:41:00;;;;;;;2.37;2.13;;;;;;;24.85;54.67;98578.69;5111523;28;20309;-70
2022/04/23 10:43:27;;;;;;;2.27;2.17;;;;;;;25.11;58.80;98588.31;5111842;28;20194;-70
2022/04/23 10:45:54;;;;;;;6.33;2.33;;;;;;;25.20;55.51;98587.38;5110794;28;20229;-69
2022/04/23 10:48:32;;;;;;;2.07;1.97;;;;;;;25.27;55.23;98588.38;5115012;27;20191;-70
2022/04/23 10:51:04;;;;;;;1.80;1.70;;;;;;;24.98;52.17;98573.81;5111831;28;20252;-69
2022/04/23 10:53:50;;;;;;;2.50;2.23;;;;;;;25.16;52.04;98586.03;5111982;28;20252;-70
2022/04/23 10:56:19;;;;;;;3.13;1.97;;;;;;;25.18;50.35;98579.66;5111074;28;20650;-71
2022/04/23 10:58:46;;;;;;;1.70;1.60;;;;;;;25.06;51.12;98581.75;5111525;27;20253;-70
2022/04/23 11:01:23;;;;;;;2.37;1.97;;;;;;;25.00;50.38;98574.50;5111541;28;20685;-69
2022/04/23 11:04:20;;;;;;;2.17;2.07;;;;;;;24.63;50.75;98549.53;5113581;27;20200;-70
2022/04/23 11:12:37;;;;;;;1.83;1.73;;;;;;;24.89;50.06;98568.72;5096321;27;20223;-70
2022/04/23 11:15:16;;;;;;;1.63;1.53;;;;;;;25.05;53.42;98574.84;5110559;27;20187;-70
2022/04/23 11:17:58;;;;;;;1.40;1.30;;;;;;;25.28;54.34;98569.03;5110482;28;20198;-70
2022/04/23 11:20:36;;;;;;;1.53;1.43;;;;;;;25.40;52.23;98562.50;5110584;28;20223;-70
2022/04/23 11:23:06;;;;;;;3.27;1.80;;;;;;;25.47;53.83;98550.38;5111016;27;20217;-71
2022/04/23 11:25:33;;;;;;;1.83;1.73;;;;;;;25.48;46.35;98565.97;5111568;27;20205;-71
2022/04/23 11:28:21;;;;;;;4.57;1.73;;;;;;;25.51;48.42;98564.88;5111715;28;20202;-72
2022/04/23 11:30:48;;;;;;;2.30;2.07;;;;;;;25.52;46.78;98571.78;5110112;28;20195;-72
2022/04/23 11:33:16;;;;;;;1.77;1.67;;;;;;;25.08;48.00;98569.28;5112271;28;20198;-72
2022/04/23 11:35:44;;;;;;;1.73;1.63;;;;;;;24.89;51.42;98569.53;5113341;27;20563;-70
2022/04/23 11:38:22;;;;;;;5.30;2.03;;;;;;;25.04;48.60;98560.09;5111876;27;20195;-71
2022/04/23 11:40:50;;;;;;;1.90;1.70;;;;;;;25.28;48.91;98558.53;5112512;27;20218;-71
2022/04/23 11:43:33;;;;;;;5.03;1.83;;;;;;;25.40;50.75;98557.25;5114805;27;20674;-71
2022/04/23 11:46:06;;;;;;;1.90;1.80;;;;;;;25.43;55.63;98530.69;5111715;28;20730;-70
2022/04/23 11:48:48;;;;;;;1.50;1.40;;;;;;;25.56;49.78;98557.31;5116631;27;20209;-69
2022/04/23 11:51:19;;;;;;;2.50;1.60;;;;;;;25.66;48.45;98544.88;5095624;28;20191;-72
2022/04/23 11:53:52;;;;;;;1.70;1.47;;;;;;;25.78;48.10;98542.78;5116135;27;20209;-71
2022/04/23 11:56:30;;;;;;;3.63;1.30;;;;;;;25.94;51.33;98555.91;5111984;28;20200;-72
2022/04/23 11:58:58;;;;;;;2.83;1.53;;;;;;;25.98;48.18;98551.94;5112629;27;20219;-72
2022/04/23 12:01:26;;;;;;;4.03;1.60;;;;;;;26.11;48.18;98554.91;5111206;28;20214;-72
2022/04/23 12:03:54;;;;;;;1.67;1.50;;;;;;;26.08;46.34;98553.44;5109595;28;20287;-72
2022/04/23 12:06:24;;;;;;;2.23;2.03;;;;;;;26.06;45.35;98547.53;5112497;27;20633;-73